createdAt,value
2019-01-13T00:01:56.348Z,10.28
2019-01-13T00:04:25.624Z,10.30
2019-01-13T00:06:55.259Z,10.31
2019-01-13T00:09:24.382Z,10.34
2019-01-13T00:11:53.587Z,10.33
2019-01-13T00:14:22.620Z,10.34
2019-01-13T00:16:52.123Z,10.36
2019-01-13T00:19:21.219Z,10.35
2019-01-13T00:21:50.247Z,10.36
2019-01-13T00:24:19.277Z,10.36
2019-01-13T00:26:48.327Z,10.36
2019-01-13T00:29:18.340Z,10.36
2019-01-13T00:31:47.411Z,10.37
2019-01-13T00:34:16.442Z,10.37
2019-01-13T00:36:45.748Z,10.36
2019-01-13T00:39:15.665Z,10.34
2019-01-13T00:41:46.464Z,10.35
2019-01-13T00:44:15.618Z,10.35
2019-01-13T00:46:45.806Z,10.35
2019-01-13T00:49:14.843Z,10.36
2019-01-13T00:51:43.971Z,10.36
2019-01-13T00:54:13.080Z,10.37
2019-01-13T00:56:42.282Z,10.38
2019-01-13T00:59:11.327Z,10.38
2019-01-13T01:01:40.366Z,10.39
2019-01-13T01:04:09.397Z,10.40
2019-01-13T01:06:38.534Z,10.41
2019-01-13T01:09:10.519Z,10.43
2019-01-13T01:11:39.806Z,10.45
2019-01-13T01:14:08.901Z,10.45
2019-01-13T01:16:38.034Z,10.46
2019-01-13T01:19:08.143Z,10.46
2019-01-13T01:21:37.314Z,10.47
2019-01-13T01:24:06.378Z,10.47
2019-01-13T01:26:35.509Z,10.48
2019-01-13T01:29:04.693Z,10.48
2019-01-13T01:31:33.733Z,10.48
2019-01-13T01:34:02.731Z,10.50
2019-01-13T01:36:31.823Z,10.51
2019-01-13T01:39:00.882Z,10.51
2019-01-13T01:41:29.974Z,10.51
2019-01-13T01:44:00.222Z,10.51
2019-01-13T01:46:29.226Z,10.52
2019-01-13T01:48:58.914Z,10.52
2019-01-13T01:51:27.998Z,10.52
2019-01-13T01:53:57.034Z,10.52
2019-01-13T01:56:26.138Z,10.52
2019-01-13T01:58:55.184Z,10.52
2019-01-13T02:01:24.178Z,10.52
2019-01-13T02:03:53.814Z,10.52
2019-01-13T02:06:23.768Z,10.52
2019-01-13T02:08:52.919Z,10.51
2019-01-13T02:11:21.928Z,10.52
2019-01-13T02:13:50.977Z,10.52
2019-01-13T02:16:20.096Z,10.52
2019-01-13T02:18:49.192Z,10.52
2019-01-13T02:21:18.356Z,10.52
2019-01-13T02:23:47.482Z,10.53
2019-01-13T02:26:16.587Z,10.53
2019-01-13T02:28:45.689Z,10.53
2019-01-13T02:31:14.769Z,10.53
2019-01-13T02:33:43.984Z,10.54
2019-01-13T02:36:13.729Z,10.55
2019-01-13T02:38:42.872Z,10.56
2019-01-13T02:41:11.880Z,10.55
2019-01-13T02:43:41.894Z,10.56
2019-01-13T02:46:10.986Z,10.56
2019-01-13T02:48:40.792Z,10.57
2019-01-13T02:51:09.903Z,10.58
2019-01-13T02:53:38.991Z,10.56
2019-01-13T02:56:08.087Z,10.56
2019-01-13T02:58:37.160Z,10.57
2019-01-13T03:01:06.253Z,10.55
2019-01-13T03:03:35.271Z,10.55
2019-01-13T03:06:04.468Z,10.57
2019-01-13T03:08:33.530Z,10.57
2019-01-13T03:11:02.617Z,10.57
2019-01-13T03:13:33.191Z,10.58
2019-01-13T03:16:02.256Z,10.57
2019-01-13T03:18:31.313Z,10.57
2019-01-13T03:21:00.448Z,10.56
2019-01-13T03:23:29.503Z,10.56
2019-01-13T03:25:58.674Z,10.56
2019-01-13T03:28:28.780Z,10.56
2019-01-13T03:31:10.665Z,10.57
2019-01-13T03:33:26.884Z,10.57
2019-01-13T03:35:55.889Z,10.58
2019-01-13T03:38:25.009Z,10.59
2019-01-13T03:40:54.048Z,10.58
2019-01-13T03:43:23.063Z,10.61
2019-01-13T03:45:52.090Z,10.62
2019-01-13T03:48:21.883Z,10.61
2019-01-13T03:50:50.963Z,10.61
2019-01-13T03:53:20.038Z,10.61
2019-01-13T03:55:49.048Z,10.60
2019-01-13T03:58:18.318Z,10.61
2019-01-13T04:00:47.343Z,10.62
2019-01-13T04:03:16.464Z,10.62
2019-01-13T04:05:45.590Z,10.62
2019-01-13T04:08:14.635Z,10.63
2019-01-13T04:10:43.706Z,10.63
2019-01-13T04:13:12.826Z,10.63
2019-01-13T04:15:43.999Z,10.64
2019-01-13T04:18:13.190Z,10.65
2019-01-13T04:20:42.330Z,10.65
2019-01-13T04:23:11.465Z,10.66
2019-01-13T04:25:41.539Z,10.67
2019-01-13T04:28:10.681Z,10.66
2019-01-13T04:30:39.736Z,10.67
2019-01-13T04:33:08.833Z,10.66
2019-01-13T04:35:37.927Z,10.66
2019-01-13T04:38:07.054Z,10.66
2019-01-13T04:40:36.115Z,10.67
2019-01-13T04:43:05.364Z,10.66
2019-01-13T04:45:34.488Z,10.64
2019-01-13T04:48:03.811Z,10.65
2019-01-13T04:50:33.303Z,10.64
2019-01-13T04:53:02.348Z,10.65
2019-01-13T04:55:31.406Z,10.64
2019-01-13T04:58:00.886Z,10.65
2019-01-13T05:00:29.955Z,10.65
2019-01-13T05:02:59.096Z,10.67
2019-01-13T05:05:28.219Z,10.65
2019-01-13T05:07:57.241Z,10.65
2019-01-13T05:10:26.301Z,10.66
2019-01-13T05:12:55.651Z,10.66
2019-01-13T05:15:24.666Z,10.64
2019-01-13T05:17:53.699Z,10.64
2019-01-13T05:20:22.754Z,10.63
2019-01-13T05:22:51.790Z,10.64
2019-01-13T05:25:20.842Z,10.64
2019-01-13T05:27:49.879Z,10.64
2019-01-13T05:30:20.761Z,10.63
2019-01-13T05:32:50.296Z,10.63
2019-01-13T05:35:19.514Z,10.61
2019-01-13T05:37:48.627Z,10.60
2019-01-13T05:40:19.500Z,10.59
2019-01-13T05:42:48.545Z,10.58
2019-01-13T05:45:19.148Z,10.57
2019-01-13T05:47:48.320Z,10.58
2019-01-13T05:50:18.707Z,10.58
2019-01-13T05:52:49.050Z,10.57
2019-01-13T05:55:18.271Z,10.58
2019-01-13T05:57:47.310Z,10.58
2019-01-13T06:00:21.178Z,10.59
2019-01-13T06:02:50.389Z,10.59
2019-01-13T06:05:19.596Z,10.60
2019-01-13T06:07:48.888Z,10.60
2019-01-13T06:10:19.011Z,10.61
2019-01-13T06:12:48.201Z,10.62
2019-01-13T06:15:19.763Z,10.62
2019-01-13T06:17:48.907Z,10.61
2019-01-13T06:20:19.607Z,10.61
2019-01-13T06:22:48.942Z,10.61
2019-01-13T06:25:18.910Z,10.61
2019-01-13T06:27:48.161Z,10.61
2019-01-13T06:30:19.199Z,10.61
2019-01-13T06:32:48.361Z,10.60
2019-01-13T06:35:17.594Z,10.60
2019-01-13T06:37:46.676Z,10.59
2019-01-13T06:40:17.728Z,10.59
2019-01-13T06:42:46.801Z,10.59
2019-01-13T06:45:19.457Z,10.57
2019-01-13T06:47:48.655Z,10.56
2019-01-13T06:50:17.871Z,10.53
2019-01-13T06:52:47.084Z,10.52
2019-01-13T06:55:16.189Z,10.53
2019-01-13T06:57:45.465Z,10.54
2019-01-13T07:00:20.627Z,10.54
2019-01-13T07:02:49.714Z,10.56
2019-01-13T07:05:18.910Z,10.57
2019-01-13T07:07:48.009Z,10.57
2019-01-13T07:10:18.229Z,10.58
2019-01-13T07:12:47.959Z,10.58
2019-01-13T07:15:18.664Z,10.58
2019-01-13T07:17:49.226Z,10.58
2019-01-13T07:20:20.888Z,10.56
2019-01-13T07:22:51.315Z,10.56
2019-01-13T07:25:21.228Z,10.53
2019-01-13T07:27:50.649Z,10.54
2019-01-13T07:30:22.341Z,10.54
2019-01-13T07:32:50.931Z,10.53
2019-01-13T07:35:20.038Z,10.52
2019-01-13T07:37:49.133Z,10.52
2019-01-13T07:40:21.473Z,10.52
2019-01-13T07:42:50.667Z,10.53
2019-01-13T07:45:21.868Z,10.53
2019-01-13T07:47:51.109Z,10.53
2019-01-13T07:50:20.459Z,10.54
2019-01-13T07:52:49.611Z,10.56
2019-01-13T07:55:20.889Z,10.54
2019-01-13T07:57:50.053Z,10.53
2019-01-13T08:00:21.505Z,10.53
2019-01-13T08:02:50.706Z,10.56
2019-01-13T08:05:22.327Z,10.56
2019-01-13T08:07:52.499Z,10.55
2019-01-13T08:10:22.836Z,10.56
2019-01-13T08:12:52.107Z,10.56
2019-01-13T08:15:21.734Z,10.57
2019-01-13T08:17:50.903Z,10.58
2019-01-13T08:20:22.464Z,10.58
2019-01-13T08:22:51.702Z,10.58
2019-01-13T08:25:20.842Z,10.58
2019-01-13T08:27:49.987Z,10.58
2019-01-13T08:30:20.399Z,10.58
2019-01-13T08:32:49.768Z,10.59
2019-01-13T08:35:18.944Z,10.60
2019-01-13T08:37:47.977Z,10.60
2019-01-13T08:40:20.118Z,10.59
2019-01-13T08:42:49.235Z,10.59
2019-01-13T08:45:19.069Z,10.59
2019-01-13T08:47:48.183Z,10.59
2019-01-13T08:50:20.197Z,10.59
2019-01-13T08:52:50.607Z,10.61
2019-01-13T08:55:19.931Z,10.61
2019-01-13T08:57:49.032Z,10.60
2019-01-13T09:00:22.260Z,10.61
2019-01-13T09:02:51.376Z,10.61
2019-01-13T09:05:20.391Z,10.62
2019-01-13T09:07:49.447Z,10.62
2019-01-13T09:10:19.139Z,10.63
2019-01-13T09:12:48.213Z,10.64
2019-01-13T09:15:19.147Z,10.64
2019-01-13T09:17:48.266Z,10.64
2019-01-13T09:20:20.618Z,10.64
2019-01-13T09:22:49.988Z,10.66
2019-01-13T09:25:19.172Z,10.65
2019-01-13T09:27:48.747Z,10.66
2019-01-13T09:30:22.226Z,10.66
2019-01-13T09:32:51.380Z,10.67
2019-01-13T09:35:20.459Z,10.67
2019-01-13T09:37:50.686Z,10.70
2019-01-13T09:40:22.462Z,10.72
2019-01-13T09:42:51.782Z,10.74
2019-01-13T09:45:20.954Z,10.75
2019-01-13T09:47:50.048Z,10.76
2019-01-13T09:50:20.101Z,10.76
2019-01-13T09:52:50.044Z,10.79
2019-01-13T09:55:20.245Z,10.81
2019-01-13T09:57:49.390Z,10.82
2019-01-13T10:00:21.328Z,10.85
2019-01-13T10:02:50.605Z,10.86
2019-01-13T10:05:19.921Z,10.92
2019-01-13T10:07:49.716Z,10.94
2019-01-13T10:10:18.870Z,10.96
2019-01-13T10:12:48.006Z,10.98
2019-01-13T10:15:18.849Z,10.99
2019-01-13T10:17:48.058Z,11.01
2019-01-13T10:20:17.292Z,11.00
2019-01-13T10:22:47.431Z,11.01
2019-01-13T10:25:16.776Z,11.01
2019-01-13T10:27:47.200Z,11.02
2019-01-13T10:30:18.976Z,11.03
2019-01-13T10:32:54.436Z,11.05
2019-01-13T10:35:17.475Z,11.06
2019-01-13T10:37:46.647Z,11.07
2019-01-13T10:40:18.736Z,11.09
2019-01-13T10:42:48.009Z,11.11
2019-01-13T10:45:18.267Z,11.11
2019-01-13T10:47:47.451Z,11.12
2019-01-13T10:50:20.253Z,11.12
2019-01-13T10:52:49.410Z,11.12
2019-01-13T10:55:19.250Z,11.13
2019-01-13T10:57:48.421Z,11.12
2019-01-13T11:00:21.851Z,11.11
2019-01-13T11:02:51.086Z,11.12
2019-01-13T11:05:20.874Z,11.13
2019-01-13T11:07:50.137Z,11.12
2019-01-13T11:10:19.326Z,11.12
2019-01-13T11:12:48.711Z,11.11
2019-01-13T11:15:21.732Z,11.12
2019-01-13T11:17:49.637Z,11.13
2019-01-13T11:20:21.214Z,11.14
2019-01-13T11:22:50.393Z,11.17
2019-01-13T11:25:19.719Z,11.19
2019-01-13T11:27:48.868Z,11.21
2019-01-13T11:30:20.015Z,11.21
2019-01-13T11:32:49.124Z,11.24
2019-01-13T11:35:18.732Z,11.24
2019-01-13T11:37:48.489Z,11.24
2019-01-13T11:40:22.936Z,11.26
2019-01-13T11:42:55.764Z,11.26
2019-01-13T11:45:25.028Z,11.29
2019-01-13T11:47:54.328Z,11.31
2019-01-13T11:50:26.774Z,11.30
2019-01-13T11:52:56.991Z,11.34
2019-01-13T11:55:26.157Z,11.35
2019-01-13T11:57:55.220Z,11.37
2019-01-13T12:00:30.910Z,11.39
2019-01-13T12:03:06.766Z,11.40
2019-01-13T12:05:33.811Z,11.40
2019-01-13T12:08:03.039Z,11.41
2019-01-13T12:10:32.237Z,11.43
2019-01-13T12:13:01.469Z,11.43
2019-01-13T12:15:30.751Z,11.44
2019-01-13T12:18:00.053Z,11.45
2019-01-13T12:20:29.652Z,11.45
2019-01-13T12:23:01.268Z,11.46
2019-01-13T12:25:33.481Z,11.47
2019-01-13T12:28:05.964Z,11.50
2019-01-13T12:30:35.266Z,11.53
2019-01-13T12:33:04.754Z,11.55
2019-01-13T12:35:34.054Z,11.58
2019-01-13T12:38:04.312Z,11.60
2019-01-13T12:40:33.803Z,11.63
2019-01-13T12:43:05.441Z,11.67
2019-01-13T12:45:39.789Z,11.68
2019-01-13T12:48:08.965Z,11.67
2019-01-13T12:50:39.690Z,11.64
2019-01-13T12:53:09.905Z,11.62
2019-01-13T12:55:40.603Z,11.60
2019-01-13T12:58:09.735Z,11.60
2019-01-13T13:00:38.857Z,11.62
2019-01-13T13:03:08.421Z,11.65
2019-01-13T13:05:38.980Z,11.68
2019-01-13T13:08:09.846Z,11.72
2019-01-13T13:10:41.975Z,11.76
2019-01-13T13:13:11.378Z,11.78
2019-01-13T13:15:40.492Z,11.81
2019-01-13T13:18:09.768Z,11.82
2019-01-13T13:20:40.637Z,11.81
2019-01-13T13:23:10.110Z,11.81
2019-01-13T13:25:39.221Z,11.79
2019-01-13T13:28:08.450Z,11.78
2019-01-13T13:30:37.703Z,11.76
2019-01-13T13:33:07.823Z,11.75
2019-01-13T13:35:39.871Z,11.72
2019-01-13T13:38:06.892Z,11.71
2019-01-13T13:40:36.108Z,11.69
2019-01-13T13:43:05.378Z,11.66
2019-01-13T13:45:34.686Z,11.65
2019-01-13T13:48:04.874Z,11.63
2019-01-13T13:50:34.018Z,11.59
2019-01-13T13:53:03.112Z,11.56
2019-01-13T13:55:32.383Z,11.54
2019-01-13T13:58:01.754Z,11.51
2019-01-13T14:00:34.650Z,11.48
2019-01-13T14:03:03.793Z,11.47
2019-01-13T14:05:33.324Z,11.47
2019-01-13T14:08:02.550Z,11.47
2019-01-13T14:10:38.217Z,11.47
2019-01-13T14:15:46.205Z,11.47
2019-01-13T14:18:15.306Z,11.47
2019-01-13T14:20:44.378Z,11.48
2019-01-13T14:23:14.367Z,11.50
2019-01-13T14:25:43.790Z,11.52
2019-01-13T14:28:14.119Z,11.54
2019-01-13T14:30:43.204Z,11.54
2019-01-13T14:33:12.315Z,11.57
2019-01-13T14:35:42.268Z,11.57
2019-01-13T14:38:11.391Z,11.56
2019-01-13T14:40:41.117Z,11.55
2019-01-13T14:43:10.833Z,11.54
2019-01-13T14:45:40.005Z,11.54
2019-01-13T14:48:10.130Z,11.54
2019-01-13T14:50:39.821Z,11.54
2019-01-13T14:53:08.808Z,11.52
2019-01-13T14:55:39.278Z,11.53
2019-01-13T14:58:08.475Z,11.52
2019-01-13T15:00:38.517Z,11.52
2019-01-13T15:03:07.751Z,11.53
2019-01-13T15:05:38.108Z,11.53
2019-01-13T15:08:07.308Z,11.52
2019-01-13T15:10:40.398Z,11.51
2019-01-13T15:13:09.691Z,11.50
2019-01-13T15:15:38.890Z,11.47
2019-01-13T15:18:09.156Z,11.46
2019-01-13T15:20:39.277Z,11.46
2019-01-13T15:23:08.480Z,11.43
2019-01-13T15:25:38.462Z,11.42
2019-01-13T15:28:08.841Z,11.40
2019-01-13T15:30:39.910Z,11.38
2019-01-13T15:33:10.391Z,11.37
2019-01-13T15:35:39.702Z,11.36
2019-01-13T15:38:09.759Z,11.35
2019-01-13T15:40:39.145Z,11.35
2019-01-13T15:43:08.226Z,11.32
2019-01-13T15:45:37.438Z,11.31
2019-01-13T15:48:07.831Z,11.31
2019-01-13T15:50:37.279Z,11.32
2019-01-13T15:53:06.479Z,11.32
2019-01-13T15:55:36.726Z,11.32
2019-01-13T15:58:06.502Z,11.30
2019-01-13T16:00:37.515Z,11.30
2019-01-13T16:03:09.665Z,11.31
2019-01-13T16:05:39.489Z,11.30
2019-01-13T16:08:09.422Z,11.27
2019-01-13T16:10:40.324Z,11.26
2019-01-13T16:13:09.378Z,11.25
2019-01-13T16:15:38.700Z,11.23
2019-01-13T16:18:11.938Z,11.23
2019-01-13T16:20:42.367Z,11.20
2019-01-13T16:23:11.561Z,11.19
2019-01-13T16:25:41.789Z,11.18
2019-01-13T16:28:10.975Z,11.18
2019-01-13T16:30:40.238Z,11.17
2019-01-13T16:33:09.287Z,11.15
2019-01-13T16:35:38.368Z,11.15
2019-01-13T16:38:07.566Z,11.14
2019-01-13T16:40:37.507Z,11.11
2019-01-13T16:43:06.764Z,11.07
2019-01-13T16:45:35.850Z,11.03
2019-01-13T16:48:05.518Z,10.97
2019-01-13T16:50:34.641Z,10.92
2019-01-13T16:53:05.919Z,10.87
2019-01-13T16:55:34.530Z,10.83
2019-01-13T16:58:18.866Z,10.81
2019-01-13T17:00:49.146Z,10.80
2019-01-13T17:03:18.302Z,10.80
2019-01-13T17:05:48.759Z,10.80
2019-01-13T17:08:17.951Z,10.82
2019-01-13T17:10:47.142Z,10.83
2019-01-13T17:13:16.336Z,10.85
2019-01-13T17:15:45.545Z,10.87
2019-01-13T17:18:14.672Z,10.90
2019-01-13T17:20:43.918Z,10.93
2019-01-13T17:23:14.131Z,10.95
2019-01-13T17:25:43.378Z,10.95
2019-01-13T17:28:12.810Z,10.96
2019-01-13T17:30:42.026Z,10.95
2019-01-13T17:33:11.847Z,10.95
2019-01-13T17:35:45.547Z,10.94
2019-01-13T17:38:14.836Z,10.93
2019-01-13T17:40:43.942Z,10.92
2019-01-13T17:43:13.233Z,10.90
2019-01-13T17:45:42.438Z,10.88
2019-01-13T17:48:11.635Z,10.85
2019-01-13T17:50:40.870Z,10.82
2019-01-13T17:53:12.233Z,10.79
2019-01-13T17:55:41.895Z,10.75
2019-01-13T17:58:12.224Z,10.74
2019-01-13T18:00:46.970Z,10.73
2019-01-13T18:03:19.163Z,10.71
2019-01-13T18:05:48.923Z,10.71
2019-01-13T18:08:18.128Z,10.72
2019-01-13T18:10:47.400Z,10.71
2019-01-13T18:13:16.545Z,10.70
2019-01-13T18:15:52.149Z,10.71
2019-01-13T18:18:21.308Z,10.70
2019-01-13T18:20:50.573Z,10.69
2019-01-13T18:23:19.889Z,10.69
2019-01-13T18:25:49.007Z,10.67
2019-01-13T18:28:18.250Z,10.69
2019-01-13T18:30:47.482Z,10.68
2019-01-13T18:33:16.679Z,10.68
2019-01-13T18:35:45.858Z,10.68
2019-01-13T18:38:15.969Z,10.67
2019-01-13T18:40:46.704Z,10.65
2019-01-13T18:43:21.244Z,10.64
2019-01-13T18:45:50.528Z,10.62
2019-01-13T18:48:19.723Z,10.62
2019-01-13T18:50:49.478Z,10.61
2019-01-13T18:53:19.452Z,10.59
2019-01-13T18:55:48.642Z,10.60
2019-01-13T18:58:17.737Z,10.62
2019-01-13T19:00:46.959Z,10.62
2019-01-13T19:03:16.912Z,10.62
2019-01-13T19:05:46.211Z,10.63
2019-01-13T19:08:15.373Z,10.62
2019-01-13T19:10:50.078Z,10.60
2019-01-13T19:13:26.764Z,10.60
2019-01-13T19:15:56.358Z,10.58
2019-01-13T19:18:25.613Z,10.56
2019-01-13T19:20:54.840Z,10.54
2019-01-13T19:23:26.450Z,10.52
2019-01-13T19:25:55.621Z,10.52
2019-01-13T19:28:26.920Z,10.50
2019-01-13T19:31:03.208Z,10.51
2019-01-13T19:33:32.534Z,10.52
2019-01-13T19:36:01.698Z,10.54
2019-01-13T19:38:36.759Z,10.60
2019-01-13T19:41:06.066Z,10.62
2019-01-13T19:43:47.371Z,10.64
2019-01-13T19:46:16.618Z,10.66
2019-01-13T19:48:45.907Z,10.67
2019-01-13T19:51:15.500Z,10.68
2019-01-13T19:53:44.873Z,10.69
2019-01-13T19:56:14.158Z,10.68
2019-01-13T19:58:43.327Z,10.64
2019-01-13T20:01:12.499Z,10.60
2019-01-13T20:03:43.363Z,10.57
2019-01-13T20:06:13.511Z,10.54
2019-01-13T20:08:42.672Z,10.49
2019-01-13T20:11:11.759Z,10.48
2019-01-13T20:13:40.884Z,10.48
2019-01-13T20:16:10.156Z,10.49
2019-01-13T20:18:40.388Z,10.48
2019-01-13T20:21:09.582Z,10.47
2019-01-13T20:23:38.807Z,10.46
2019-01-13T20:26:09.085Z,10.44
2019-01-13T20:28:38.541Z,10.46
2019-01-13T20:31:07.746Z,10.45
2019-01-13T20:33:37.039Z,10.44
2019-01-13T20:36:06.343Z,10.43
2019-01-13T20:38:36.329Z,10.43
2019-01-13T20:41:05.703Z,10.44
2019-01-13T20:43:35.807Z,10.43
2019-01-13T20:46:05.332Z,10.44
2019-01-13T20:48:34.552Z,10.41
2019-01-13T20:51:04.241Z,10.41
2019-01-13T20:53:33.430Z,10.41
2019-01-13T20:56:03.090Z,10.41
2019-01-13T20:58:32.566Z,10.42
2019-01-13T21:01:01.804Z,10.44
2019-01-13T21:03:30.959Z,10.47
2019-01-13T21:06:00.142Z,10.46
2019-01-13T21:08:29.241Z,10.46
2019-01-13T21:10:58.436Z,10.43
2019-01-13T21:13:27.510Z,10.39
2019-01-13T21:15:56.729Z,10.35
2019-01-13T21:18:25.919Z,10.29
2019-01-13T21:20:55.163Z,10.26
2019-01-13T21:23:24.429Z,10.24
2019-01-13T21:25:53.610Z,10.23
2019-01-13T21:28:27.057Z,10.22
2019-01-13T21:30:56.984Z,10.21
2019-01-13T21:33:26.667Z,10.18
2019-01-13T21:35:55.868Z,10.15
2019-01-13T21:38:25.032Z,10.12
2019-01-13T21:40:54.144Z,10.10
2019-01-13T21:43:23.326Z,10.05
2019-01-13T21:45:52.417Z,10.01
2019-01-13T21:48:26.280Z,9.99
2019-01-13T21:50:55.375Z,9.98
2019-01-13T21:53:26.014Z,9.97
2019-01-13T21:55:55.110Z,9.95
2019-01-13T21:58:24.259Z,9.93
2019-01-13T22:00:53.540Z,9.90
2019-01-13T22:03:22.751Z,9.88
2019-01-13T22:05:51.876Z,9.87
2019-01-13T22:08:21.534Z,9.88
2019-01-13T22:10:50.716Z,9.89
2019-01-13T22:13:19.810Z,9.89
2019-01-13T22:15:49.010Z,9.89
2019-01-13T22:18:18.172Z,9.89
2019-01-13T22:20:47.391Z,9.88
2019-01-13T22:23:17.387Z,9.88
2019-01-13T22:25:46.673Z,9.87
2019-01-13T22:28:16.450Z,9.86
2019-01-13T22:30:45.613Z,9.84
2019-01-13T22:33:14.812Z,9.83
2019-01-13T22:35:48.066Z,9.79
2019-01-13T22:38:13.047Z,9.75
2019-01-13T22:40:42.429Z,9.72
2019-01-13T22:43:11.657Z,9.68
2019-01-13T22:45:40.805Z,9.65
2019-01-13T22:48:09.940Z,9.60
2019-01-13T22:50:39.731Z,9.58
2019-01-13T22:53:08.842Z,9.53
2019-01-13T22:55:37.881Z,9.52
2019-01-13T22:58:06.952Z,9.47
2019-01-13T23:00:53.503Z,9.43
2019-01-13T23:03:22.722Z,9.41
2019-01-13T23:05:55.718Z,9.39
2019-01-13T23:08:21.202Z,9.37
2019-01-13T23:10:50.285Z,9.35
2019-01-13T23:13:19.465Z,9.35
2019-01-13T23:15:48.819Z,9.34
2019-01-13T23:18:17.887Z,9.33
2019-01-13T23:20:47.091Z,9.31
2019-01-13T23:23:17.168Z,9.30
2019-01-13T23:25:46.467Z,9.31
2019-01-13T23:28:15.615Z,9.33
2019-01-13T23:30:44.808Z,9.34
2019-01-13T23:33:14.041Z,9.39
2019-01-13T23:35:43.109Z,9.42
2019-01-13T23:38:12.220Z,9.45
2019-01-13T23:40:43.627Z,9.43
2019-01-13T23:43:12.810Z,9.46
2019-01-13T23:45:41.860Z,9.48
2019-01-13T23:48:11.115Z,9.50
2019-01-13T23:50:40.243Z,9.55
2019-01-13T23:53:09.346Z,9.57
2019-01-13T23:55:38.448Z,9.58
2019-01-13T23:58:07.823Z,9.55
